Time;durP1;ratioP1;P1;durP2;ratioP2;P2;SDS_P1;SDS_P2;PMS_P1;PMS_P2;Temp;Humidity;BMP_temperature;BMP_pressure;BME280_temperature;BME280_humidity;BME280_pressure;Samples;Min_cycle;Max_cycle;Signal;HPM_P1;HPM_P2
2022/11/08 00:02:31;;;;;;;6.70;2.10;;;19.50;1.00;;;;;;4880011;29;20056;-48
2022/11/08 00:16:00;;;;;;;7.13;1.83;;;19.40;1.00;;;;;;4880112;29;20425;-50
2022/11/08 00:18:27;;;;;;;4.18;1.55;;;19.40;1.00;;;;;;4879750;29;20043;-47
2022/11/08 00:20:54;;;;;;;3.85;1.98;;;19.40;1.00;;;;;;4879773;29;20041;-49
2022/11/08 00:23:21;;;;;;;7.85;1.58;;;19.30;1.00;;;;;;4878365;29;20060;-50
2022/11/08 00:25:55;;;;;;;3.65;2.03;;;19.30;1.00;;;;;;4879658;29;20045;-47
2022/11/08 00:28:22;;;;;;;5.32;1.80;;;19.30;1.00;;;;;;4879542;29;20047;-51
2022/11/08 00:30:48;;;;;;;7.50;1.90;;;19.30;1.00;;;;;;4879800;29;20045;-50
2022/11/08 00:33:15;;;;;;;5.43;1.45;;;19.30;1.00;;;;;;4872447;29;20049;-53
2022/11/08 00:35:42;;;;;;;6.43;1.88;;;19.30;1.00;;;;;;4861007;29;20133;-51
2022/11/08 00:38:09;;;;;;;4.97;1.20;;;19.30;1.00;;;;;;4861032;29;20393;-51
2022/11/08 00:40:36;;;;;;;7.75;1.65;;;19.20;1.00;;;;;;4859321;29;20055;-52
2022/11/08 00:43:03;;;;;;;6.13;1.70;;;19.20;1.00;;;;;;4861094;29;20485;-51
2022/11/08 00:45:30;;;;;;;4.57;1.65;;;19.20;1.00;;;;;;4860856;29;20041;-49
2022/11/08 00:47:57;;;;;;;8.52;2.78;;;19.20;1.00;;;;;;4860856;29;20073;-49
2022/11/08 00:50:24;;;;;;;4.65;1.50;;;19.20;1.00;;;;;;4860580;29;20052;-50
2022/11/08 00:52:51;;;;;;;6.95;1.63;;;19.20;1.00;;;;;;4860835;29;20132;-52
2022/11/08 00:55:18;;;;;;;5.53;1.60;;;19.20;1.00;;;;;;4860989;29;20054;-47
2022/11/08 00:57:44;;;;;;;4.47;1.27;;;19.10;1.00;;;;;;4865041;29;20049;-48
2022/11/08 01:00:26;;;;;;;7.10;1.67;;;19.10;1.00;;;;;;4864523;29;20053;-51
2022/11/08 01:03:17;;;;;;;4.57;1.42;;;19.10;1.00;;;;;;4864888;29;20045;-51
2022/11/08 01:05:40;;;;;;;3.42;1.65;;;19.10;1.00;;;;;;4864683;29;20122;-46
2022/11/08 01:08:09;;;;;;;7.35;2.28;;;19.10;1.00;;;;;;4864503;29;20484;-51
2022/11/08 01:10:36;;;;;;;3.85;1.40;;;19.10;1.00;;;;;;4864329;29;20042;-50
2022/11/08 01:13:03;;;;;;;7.35;1.85;;;19.10;1.00;;;;;;4864477;29;20049;-49
2022/11/08 01:15:39;;;;;;;4.15;1.83;;;19.10;1.00;;;;;;4864855;29;20080;-49
2022/11/08 01:18:08;;;;;;;6.72;1.25;;;19.00;1.00;;;;;;4864701;29;20061;-51
2022/11/08 01:20:38;;;;;;;6.55;2.05;;;19.00;1.00;;;;;;4864218;29;20045;-50
2022/11/08 01:23:05;;;;;;;4.82;2.30;;;19.00;1.00;;;;;;4864303;29;20046;-53
2022/11/08 01:25:41;;;;;;;7.13;1.63;;;19.00;1.00;;;;;;4864411;29;20451;-50
2022/11/08 01:28:10;;;;;;;9.73;1.42;;;19.00;1.00;;;;;;4864158;29;20069;-51
2022/11/08 01:30:38;;;;;;;4.00;1.08;;;19.00;1.00;;;;;;4863678;29;20192;-48
2022/11/08 01:33:06;;;;;;;6.28;1.67;;;19.00;1.00;;;;;;4869812;29;20059;-50
2022/11/08 01:35:34;;;;;;;3.63;1.00;;;19.00;1.00;;;;;;4882602;29;20053;-49
2022/11/08 01:38:01;;;;;;;3.28;1.23;;;19.00;1.00;;;;;;4882831;29;20045;-48
2022/11/08 01:40:29;;;;;;;4.68;1.30;;;19.00;1.00;;;;;;4882257;29;20049;-48
2022/11/08 01:42:55;;;;;;;3.25;1.60;;;18.90;1.00;;;;;;4882453;29;20101;-52
2022/11/08 01:46:13;;;;;;;3.92;1.10;;;18.90;1.00;;;;;;4882257;29;20052;-48
2022/11/08 01:49:08;;;;;;;3.80;1.30;;;18.90;1.00;;;;;;4882369;29;20049;-48
2022/11/08 01:51:43;;;;;;;5.10;1.42;;;18.90;1.00;;;;;;4882614;29;20081;-48
2022/11/08 01:54:15;;;;;;;6.20;1.55;;;18.90;1.00;;;;;;4882637;29;20407;-50
2022/11/08 01:56:42;;;;;;;4.78;1.35;;;18.90;1.00;;;;;;4882219;29;20045;-47
2022/11/08 01:59:11;;;;;;;4.72;1.33;;;18.80;1.00;;;;;;4882241;29;20499;-51
2022/11/08 02:01:38;;;;;;;4.28;1.58;;;18.80;1.00;;;;;;4881963;29;20057;-49
2022/11/08 02:04:05;;;;;;;8.02;1.95;;;18.80;1.00;;;;;;4882471;29;20207;-48
2022/11/08 02:06:36;;;;;;;6.88;1.73;;;18.80;1.00;;;;;;4882184;29;20045;-49
2022/11/08 02:09:07;;;;;;;5.82;1.30;;;18.80;1.00;;;;;;4881782;29;20049;-48
2022/11/08 02:11:34;;;;;;;2.60;1.00;;;18.80;1.00;;;;;;4881897;29;20051;-50
2022/11/08 02:14:03;;;;;;;4.82;1.02;;;18.80;1.00;;;;;;4882218;29;20411;-52
2022/11/08 02:16:30;;;;;;;5.68;1.05;;;18.80;1.00;;;;;;4881985;29;20059;-47
2022/11/08 02:18:57;;;;;;;4.32;1.05;;;18.80;1.00;;;;;;4881755;29;20057;-48
2022/11/08 02:21:49;;;;;;;9.13;0.93;;;18.70;1.00;;;;;;4896239;29;20376;-49
2022/11/08 02:24:16;;;;;;;5.35;1.08;;;18.70;1.00;;;;;;4882116;29;20468;-47
2022/11/08 02:26:44;;;;;;;4.05;1.17;;;18.70;1.00;;;;;;4881689;29;20431;-48
2022/11/08 02:29:29;;;;;;;2.67;1.30;;;18.70;1.00;;;;;;4881332;29;20037;-52
2022/11/08 02:31:58;;;;;;;3.38;1.15;;;18.70;1.00;;;;;;4881607;29;20413;-50
2022/11/08 02:34:29;;;;;;;6.03;1.30;;;18.70;1.00;;;;;;4865702;29;20050;-47
2022/11/08 02:36:57;;;;;;;6.90;2.13;;;18.70;1.00;;;;;;4862983;29;20528;-48
2022/11/08 02:39:24;;;;;;;4.90;1.40;;;18.70;1.00;;;;;;4862856;29;20053;-51
2022/11/08 02:41:51;;;;;;;3.00;1.13;;;18.70;1.00;;;;;;4862643;29;20057;-53
2022/11/08 02:44:18;;;;;;;2.88;0.93;;;18.60;1.00;;;;;;4862903;29;20046;-48
2022/11/08 02:46:45;;;;;;;4.82;1.70;;;18.60;1.00;;;;;;4863224;29;20041;-52
2022/11/08 02:49:12;;;;;;;5.03;1.20;;;18.60;1.00;;;;;;4861417;29;20461;-52
2022/11/08 02:51:38;;;;;;;4.95;1.30;;;18.60;1.00;;;;;;4862888;29;20056;-49
2022/11/08 02:54:05;;;;;;;3.75;1.17;;;18.60;1.00;;;;;;4863061;29;20057;-50
2022/11/08 02:56:32;;;;;;;4.30;1.60;;;18.60;1.00;;;;;;4862704;29;20053;-51
2022/11/08 02:58:59;;;;;;;1.67;0.70;;;18.60;1.00;;;;;;4862418;29;20077;-51
2022/11/08 03:01:26;;;;;;;2.65;1.30;;;18.60;1.00;;;;;;4863045;29;20046;-49
2022/11/08 03:03:53;;;;;;;3.03;0.93;;;18.60;1.00;;;;;;4862590;29;20046;-50
2022/11/08 03:06:20;;;;;;;2.53;1.02;;;18.50;1.00;;;;;;4862682;29;20041;-49
2022/11/08 03:08:47;;;;;;;2.35;0.77;;;18.50;1.00;;;;;;4862140;29;20144;-51
2022/11/08 03:11:13;;;;;;;2.58;1.10;;;18.50;1.00;;;;;;4862459;29;20049;-51
2022/11/08 03:13:40;;;;;;;3.95;1.00;;;18.50;1.00;;;;;;4862143;29;20102;-50
2022/11/08 03:16:07;;;;;;;2.78;1.20;;;18.50;1.00;;;;;;4862594;29;20045;-46
2022/11/08 03:18:34;;;;;;;5.03;1.70;;;18.50;1.00;;;;;;4861458;29;20484;-50
2022/11/08 03:21:01;;;;;;;3.47;0.95;;;18.50;1.00;;;;;;4862351;29;20041;-51
2022/11/08 03:23:28;;;;;;;3.85;1.00;;;18.50;1.00;;;;;;4861954;29;20045;-48
2022/11/08 03:25:55;;;;;;;2.97;0.88;;;18.50;1.00;;;;;;4862512;29;20049;-49
2022/11/08 03:28:22;;;;;;;3.38;1.02;;;18.50;1.00;;;;;;4861963;29;20045;-50
2022/11/08 03:30:51;;;;;;;5.68;0.90;;;18.40;1.00;;;;;;4861879;29;20105;-49
2022/11/08 03:33:19;;;;;;;7.50;1.30;;;18.40;1.00;;;;;;4869458;29;20532;-51
2022/11/08 03:35:47;;;;;;;3.20;1.02;;;18.40;1.00;;;;;;4880442;29;20049;-50
2022/11/08 03:38:15;;;;;;;3.63;1.13;;;18.40;1.00;;;;;;4880596;29;20057;-48
2022/11/08 03:40:44;;;;;;;4.18;1.48;;;18.40;1.00;;;;;;4880324;29;20057;-49
2022/11/08 03:43:11;;;;;;;3.97;1.05;;;18.40;1.00;;;;;;4880446;29;20088;-49
2022/11/08 03:45:37;;;;;;;4.82;0.93;;;18.40;1.00;;;;;;4880328;29;20049;-49
2022/11/08 03:48:04;;;;;;;2.95;1.05;;;18.40;1.00;;;;;;4880675;29;20056;-48
2022/11/08 03:50:31;;;;;;;3.10;1.38;;;18.40;1.00;;;;;;4879831;29;20400;-49
2022/11/08 03:52:58;;;;;;;3.95;1.25;;;18.40;1.00;;;;;;4880277;29;20045;-49
2022/11/08 03:55:26;;;;;;;4.55;1.40;;;18.40;1.00;;;;;;4880326;29;20068;-49
2022/11/08 03:57:53;;;;;;;3.15;0.88;;;18.30;1.00;;;;;;4880307;29;20530;-48
2022/11/08 04:00:26;;;;;;;3.33;1.02;;;18.30;1.00;;;;;;4879859;29;20087;-48
2022/11/08 04:02:58;;;;;;;2.33;0.83;;;18.40;1.00;;;;;;4879987;29;20041;-54
2022/11/08 04:05:25;;;;;;;3.70;1.00;;;18.30;1.00;;;;;;4879988;29;20399;-49
2022/11/08 04:07:52;;;;;;;2.58;0.95;;;18.30;1.00;;;;;;4880227;29;20105;-49
2022/11/08 04:10:19;;;;;;;4.60;1.10;;;18.30;1.00;;;;;;4879594;29;20507;-50
2022/11/08 04:15:31;;;;;;;1.30;0.80;;;18.30;1.00;;;;;;4879732;29;20053;-51
2022/11/08 04:23:33;;;;;;;4.55;1.10;;;18.20;1.00;;;;;;4879847;29;20045;-50
2022/11/08 04:26:02;;;;;;;1.63;0.77;;;18.30;1.00;;;;;;4880440;29;20372;-48
2022/11/08 04:28:32;;;;;;;3.13;0.90;;;18.20;1.00;;;;;;4879456;29;20504;-52
2022/11/08 04:31:01;;;;;;;4.30;1.15;;;18.20;1.00;;;;;;4878593;29;20105;-51
2022/11/08 04:33:29;;;;;;;1.92;1.05;;;18.20;1.00;;;;;;4870937;29;20461;-47
2022/11/08 04:36:00;;;;;;;3.47;1.23;;;18.20;1.00;;;;;;4861411;29;20416;-48
2022/11/08 04:38:27;;;;;;;3.70;0.82;;;18.20;1.00;;;;;;4860706;29;20156;-52
2022/11/08 04:41:09;;;;;;;3.40;1.15;;;18.20;1.00;;;;;;4861154;29;20050;-49
2022/11/08 04:43:36;;;;;;;4.00;1.80;;;18.20;1.00;;;;;;4860980;29;20470;-49
2022/11/08 04:46:06;;;;;;;2.90;0.80;;;18.20;1.00;;;;;;4860994;29;20552;-48
2022/11/08 04:48:33;;;;;;;3.55;0.80;;;18.20;1.00;;;;;;4859752;29;20042;-50
2022/11/08 04:51:21;;;;;;;3.95;1.48;;;18.20;1.00;;;;;;4860859;29;20433;-49
2022/11/08 04:53:49;;;;;;;3.78;0.88;;;18.20;1.00;;;;;;4861027;29;20084;-49
2022/11/08 04:56:21;;;;;;;4.45;0.95;;;18.20;1.00;;;;;;4860834;29;20050;-50
2022/11/08 04:58:53;;;;;;;5.10;1.30;;;18.20;1.00;;;;;;4860613;29;20066;-50
2022/11/08 05:01:23;;;;;;;5.40;1.30;;;18.10;1.00;;;;;;4860724;29;20052;-49
2022/11/08 05:03:51;;;;;;;4.57;1.33;;;18.10;1.00;;;;;;4861057;29;20050;-52
2022/11/08 05:06:27;;;;;;;4.88;0.88;;;18.10;1.00;;;;;;4860803;29;20077;-52
2022/11/08 05:08:56;;;;;;;3.10;1.25;;;18.10;1.00;;;;;;4860738;29;20056;-51
2022/11/08 05:11:24;;;;;;;4.57;1.13;;;18.10;1.00;;;;;;4856124;29;20113;-49
2022/11/08 05:13:52;;;;;;;3.95;1.08;;;18.10;1.00;;;;;;4849251;29;20050;-48
2022/11/08 05:16:22;;;;;;;2.83;1.08;;;18.10;1.00;;;;;;4842460;29;20046;-51
2022/11/08 05:18:50;;;;;;;6.47;2.13;;;18.10;1.00;;;;;;4842094;29;20073;-50
2022/11/08 05:24:07;;;;;;;2.83;1.23;;;18.10;1.00;;;;;;4849404;29;20634;-50
2022/11/08 05:26:36;;;;;;;6.53;1.35;;;18.10;1.00;;;;;;4860302;29;20106;-50
2022/11/08 05:29:03;;;;;;;2.40;1.00;;;18.10;1.00;;;;;;4860128;29;20049;-50
2022/11/08 05:31:31;;;;;;;3.08;0.98;;;18.00;1.00;;;;;;4860628;29;20049;-51
2022/11/08 05:33:59;;;;;;;3.05;1.00;;;18.00;1.00;;;;;;4860605;29;20128;-49
2022/11/08 05:36:27;;;;;;;4.57;0.75;;;18.00;1.00;;;;;;4860729;29;20572;-53
2022/11/08 05:38:54;;;;;;;6.22;1.13;;;18.00;1.00;;;;;;4860430;29;20045;-51
2022/11/08 05:41:22;;;;;;;2.78;1.10;;;18.00;1.00;;;;;;4860763;29;20057;-52
2022/11/08 05:43:51;;;;;;;5.55;1.80;;;18.00;1.00;;;;;;4863555;29;20046;-50
2022/11/08 05:46:19;;;;;;;6.72;1.35;;;18.00;1.00;;;;;;4864186;29;20045;-48
2022/11/08 05:48:47;;;;;;;2.22;0.68;;;18.00;1.00;;;;;;4863607;29;20041;-48
2022/11/08 05:51:16;;;;;;;4.13;1.27;;;18.00;1.00;;;;;;4863713;29;20049;-48
2022/11/08 05:53:42;;;;;;;3.63;1.02;;;18.00;1.00;;;;;;4863254;29;20054;-48
2022/11/08 05:56:09;;;;;;;4.53;1.00;;;18.00;1.00;;;;;;4866551;29;20055;-48
2022/11/08 05:58:36;;;;;;;6.88;1.35;;;18.00;1.00;;;;;;4875252;29;20496;-50
2022/11/08 06:01:15;;;;;;;2.58;0.90;;;17.90;1.00;;;;;;4882210;29;20067;-46
2022/11/08 06:03:42;;;;;;;2.55;1.05;;;18.00;1.00;;;;;;4882012;29;20471;-52
2022/11/08 06:06:11;;;;;;;3.13;1.13;;;18.00;1.00;;;;;;4882177;29;20097;-46
2022/11/08 06:08:38;;;;;;;3.65;0.98;;;18.00;1.00;;;;;;4881989;29;20049;-49
2022/11/08 06:11:08;;;;;;;1.30;0.50;;;17.90;1.00;;;;;;4881682;29;20045;-49
2022/11/08 06:13:36;;;;;;;4.38;1.33;;;17.90;1.00;;;;;;4882240;29;20487;-50
2022/11/08 06:16:05;;;;;;;7.55;2.45;;;17.90;1.00;;;;;;4882033;29;20049;-51
2022/11/08 06:18:33;;;;;;;4.68;0.93;;;17.90;1.00;;;;;;4881486;29;20048;-50
2022/11/08 06:21:01;;;;;;;2.25;0.70;;;17.90;1.00;;;;;;4881948;29;20045;-48
2022/11/08 06:23:28;;;;;;;3.72;0.70;;;17.90;1.00;;;;;;4881937;29;20049;-48
2022/11/08 06:25:54;;;;;;;2.33;0.90;;;17.90;1.00;;;;;;4881955;29;20041;-48
2022/11/08 06:28:21;;;;;;;2.78;1.13;;;17.90;1.00;;;;;;4881754;29;20113;-48
2022/11/08 06:30:49;;;;;;;3.22;0.47;;;17.90;1.00;;;;;;4881478;29;20049;-49
2022/11/08 06:33:16;;;;;;;2.83;0.98;;;17.90;1.00;;;;;;4881761;29;20073;-50
2022/11/08 06:35:43;;;;;;;4.32;0.90;;;17.90;1.00;;;;;;4882320;29;20051;-50
2022/11/08 06:38:10;;;;;;;2.33;0.65;;;17.90;1.00;;;;;;4880630;29;20049;-47
2022/11/08 06:40:37;;;;;;;2.08;0.85;;;17.90;1.00;;;;;;4881349;29;20053;-49
2022/11/08 06:43:04;;;;;;;2.45;0.90;;;17.90;1.00;;;;;;4882243;29;20049;-47
2022/11/08 06:45:32;;;;;;;3.42;1.25;;;17.90;1.00;;;;;;4882016;29;20380;-47
2022/11/08 06:48:00;;;;;;;1.75;0.80;;;17.90;1.00;;;;;;4881728;29;20123;-53
2022/11/08 06:50:29;;;;;;;6.10;1.75;;;17.80;1.00;;;;;;4881118;29;20045;-51
2022/11/08 06:53:07;;;;;;;2.65;0.90;;;17.90;1.00;;;;;;4881300;29;20124;-48
2022/11/08 06:55:35;;;;;;;2.60;0.93;;;17.90;1.00;;;;;;4881308;29;20064;-52
2022/11/08 06:58:03;;;;;;;1.98;1.13;;;17.80;1.00;;;;;;4878961;29;20049;-50
2022/11/08 07:00:30;;;;;;;3.78;0.63;;;17.80;1.00;;;;;;4874622;29;20059;-48
2022/11/08 07:03:00;;;;;;;3.05;1.15;;;17.80;1.00;;;;;;4880650;29;20131;-49
2022/11/08 07:05:28;;;;;;;3.83;1.10;;;17.80;1.00;;;;;;4880964;29;20045;-52
2022/11/08 07:07:59;;;;;;;4.60;0.93;;;17.80;1.00;;;;;;4880988;29;20122;-48
2022/11/08 07:10:31;;;;;;;2.05;0.80;;;17.80;1.00;;;;;;4880617;29;20111;-47
2022/11/08 07:13:06;;;;;;;3.38;0.93;;;17.80;1.00;;;;;;4880954;29;20426;-47
2022/11/08 07:15:34;;;;;;;2.22;0.82;;;17.80;1.00;;;;;;4880852;29;20139;-50
2022/11/08 07:18:05;;;;;;;3.47;0.93;;;17.80;1.00;;;;;;4880964;29;20045;-50
2022/11/08 07:20:32;;;;;;;4.93;1.00;;;17.80;1.00;;;;;;4880578;29;20563;-49
2022/11/08 07:23:00;;;;;;;2.75;0.88;;;17.80;1.00;;;;;;4880571;29;20551;-49
2022/11/08 07:25:28;;;;;;;3.08;0.90;;;17.80;1.00;;;;;;4880859;29;20045;-50
2022/11/08 07:28:03;;;;;;;1.95;0.95;;;17.80;1.00;;;;;;4880987;29;20041;-49
2022/11/08 07:30:31;;;;;;;2.35;0.60;;;17.70;1.00;;;;;;4880371;29;20048;-48
2022/11/08 07:32:58;;;;;;;4.55;1.15;;;17.70;1.00;;;;;;4881099;29;20414;-51
2022/11/08 07:35:26;;;;;;;2.72;0.77;;;17.80;1.00;;;;;;4880494;29;20045;-49
2022/11/08 07:37:53;;;;;;;4.75;1.38;;;17.80;1.00;;;;;;4880751;29;20411;-50
2022/11/08 07:40:20;;;;;;;1.45;0.70;;;17.80;1.00;;;;;;4880122;29;20057;-48
2022/11/08 07:42:47;;;;;;;2.42;0.65;;;17.70;1.00;;;;;;4880268;29;20041;-52
2022/11/08 07:45:34;;;;;;;4.65;0.77;;;17.80;1.00;;;;;;4880376;29;20037;-48
2022/11/08 07:48:06;;;;;;;4.30;1.25;;;17.80;1.00;;;;;;4880531;29;20049;-48
2022/11/08 07:50:40;;;;;;;3.88;0.85;;;17.70;1.00;;;;;;4879994;29;20101;-47
2022/11/08 07:53:07;;;;;;;3.25;0.90;;;17.70;1.00;;;;;;4880236;29;20053;-52
2022/11/08 07:55:38;;;;;;;5.28;0.88;;;17.70;1.00;;;;;;4880194;29;20068;-50
2022/11/08 07:58:06;;;;;;;2.00;0.82;;;17.70;1.00;;;;;;4880766;29;20049;-53
2022/11/08 08:00:37;;;;;;;1.60;1.00;;;17.70;1.00;;;;;;4879945;29;20064;-50
2022/11/08 08:03:06;;;;;;;1.52;0.65;;;17.70;1.00;;;;;;4880365;29;20045;-50
2022/11/08 08:05:36;;;;;;;2.22;0.90;;;17.70;1.00;;;;;;4879746;29;20128;-48
2022/11/08 08:08:03;;;;;;;1.23;0.52;;;17.70;1.00;;;;;;4879779;29;20049;-53
2022/11/08 08:10:31;;;;;;;3.85;1.02;;;17.70;1.00;;;;;;4879946;29;20461;-49
2022/11/08 08:12:59;;;;;;;3.55;1.00;;;17.70;1.00;;;;;;4879844;29;20116;-51
2022/11/08 08:15:26;;;;;;;1.40;0.70;;;17.70;1.00;;;;;;4880033;29;20052;-50
2022/11/08 08:17:53;;;;;;;4.68;0.95;;;17.70;1.00;;;;;;4880105;29;20104;-50
2022/11/08 08:20:20;;;;;;;3.88;1.02;;;17.70;1.00;;;;;;4879538;29;20511;-51
2022/11/08 08:22:49;;;;;;;2.22;0.80;;;17.70;1.00;;;;;;4879669;29;20056;-50
2022/11/08 08:25:17;;;;;;;3.92;1.10;;;17.70;1.00;;;;;;4880431;29;20132;-49
2022/11/08 08:27:53;;;;;;;2.83;0.77;;;17.70;1.00;;;;;;4878354;29;20147;-51
2022/11/08 08:30:21;;;;;;;2.03;0.80;;;17.60;1.00;;;;;;4879437;29;20057;-52
2022/11/08 08:32:49;;;;;;;2.05;0.80;;;17.60;1.00;;;;;;4879934;29;20395;-50
2022/11/08 08:35:38;;;;;;;2.88;0.95;;;17.60;1.00;;;;;;4879711;29;20411;-50
2022/11/08 08:38:06;;;;;;;1.33;0.90;;;17.60;1.00;;;;;;4879671;29;20041;-50
2022/11/08 08:40:33;;;;;;;1.63;0.68;;;17.60;1.00;;;;;;4879324;29;20047;-53
2022/11/08 08:43:02;;;;;;;1.20;0.70;;;17.60;1.00;;;;;;4879471;29;20093;-49
2022/11/08 08:45:30;;;;;;;2.05;0.77;;;17.60;1.00;;;;;;4879747;29;20541;-51
2022/11/08 08:47:58;;;;;;;3.17;0.60;;;17.60;1.00;;;;;;4879405;29;20049;-47
2022/11/08 08:50:27;;;;;;;1.95;1.15;;;17.60;1.00;;;;;;4878982;29;20037;-47
2022/11/08 08:53:03;;;;;;;2.42;1.15;;;17.60;1.00;;;;;;4879517;29;20448;-50
2022/11/08 08:55:31;;;;;;;3.05;0.80;;;17.60;1.00;;;;;;4879537;29;20041;-49
2022/11/08 08:57:57;;;;;;;3.22;0.70;;;17.60;1.00;;;;;;4879260;29;20507;-47
2022/11/08 09:00:24;;;;;;;2.05;1.00;;;17.60;1.00;;;;;;4879114;29;20097;-51
2022/11/08 09:03:12;;;;;;;3.42;1.48;;;17.60;1.00;;;;;;4879155;29;20058;-50
2022/11/08 09:05:45;;;;;;;1.45;0.55;;;17.60;1.00;;;;;;4879806;29;20049;-49
2022/11/08 09:08:13;;;;;;;1.45;0.63;;;17.60;1.00;;;;;;4879708;29;20045;-48
2022/11/08 09:10:40;;;;;;;1.80;0.73;;;17.60;1.00;;;;;;4878939;29;20093;-48
2022/11/08 09:13:07;;;;;;;2.45;0.60;;;17.60;1.00;;;;;;4879410;29;20552;-48
2022/11/08 09:15:34;;;;;;;3.97;1.52;;;17.60;1.00;;;;;;4879250;29;20045;-49
2022/11/08 09:18:01;;;;;;;2.60;0.77;;;17.60;1.00;;;;;;4880433;29;20480;-48
2022/11/08 09:20:28;;;;;;;1.92;0.90;;;17.60;1.00;;;;;;4881503;29;20112;-50
2022/11/08 09:22:55;;;;;;;1.85;0.60;;;17.60;1.00;;;;;;4883241;29;20041;-50
2022/11/08 09:25:21;;;;;;;1.85;0.85;;;17.60;1.00;;;;;;4882740;29;20450;-51
2022/11/08 09:27:48;;;;;;;2.53;0.80;;;17.60;1.00;;;;;;4882605;29;20049;-49
2022/11/08 09:30:15;;;;;;;2.80;0.95;;;17.60;1.00;;;;;;4882441;29;20101;-48
2022/11/08 09:32:42;;;;;;;2.33;0.50;;;17.60;1.00;;;;;;4882685;29;20131;-48
2022/11/08 09:35:26;;;;;;;2.13;1.10;;;17.60;1.00;;;;;;4882545;29;20064;-50
2022/11/08 09:37:54;;;;;;;1.48;0.52;;;17.60;1.00;;;;;;4882738;29;20105;-49
2022/11/08 09:40:36;;;;;;;1.35;0.60;;;17.60;1.00;;;;;;4882253;29;20447;-49
2022/11/08 09:43:31;;;;;;;1.80;0.80;;;17.60;1.00;;;;;;4882515;29;20048;-50
2022/11/08 09:45:58;;;;;;;1.85;0.80;;;17.60;1.00;;;;;;4882452;29;20072;-48
2022/11/08 09:48:36;;;;;;;3.17;1.50;;;17.60;1.00;;;;;;4882382;29;20045;-48
2022/11/08 09:51:10;;;;;;;1.75;0.90;;;17.50;1.00;;;;;;4882975;29;20384;-50
2022/11/08 09:53:50;;;;;;;2.10;0.73;;;17.50;1.00;;;;;;4882594;29;20535;-47
2022/11/08 09:56:20;;;;;;;2.33;0.82;;;17.50;1.00;;;;;;4882419;29;20448;-49
2022/11/08 09:59:01;;;;;;;3.70;1.23;;;17.50;1.00;;;;;;4882068;29;20049;-50
2022/11/08 10:01:35;;;;;;;2.25;0.50;;;17.50;1.00;;;;;;4882144;29;20053;-49
2022/11/08 10:04:16;;;;;;;2.80;0.52;;;17.50;1.00;;;;;;4882116;29;20052;-50
2022/11/08 10:07:18;;;;;;;1.13;0.75;;;17.50;1.00;;;;;;4882156;29;20037;-48
2022/11/08 10:09:51;;;;;;;1.15;0.65;;;17.50;1.00;;;;;;4840893;29;20140;-49
2022/11/08 10:12:27;;;;;;;2.83;1.00;;;17.50;1.00;;;;;;4882428;29;20052;-48
2022/11/08 10:15:34;;;;;;;3.58;0.63;;;17.50;1.00;;;;;;4882485;29;20053;-50
2022/11/08 10:18:36;;;;;;;2.33;0.88;;;17.50;1.00;;;;;;4881848;29;20559;-47
2022/11/08 10:21:26;;;;;;;2.25;0.90;;;17.50;1.00;;;;;;4868567;29;20061;-47
2022/11/08 10:24:36;;;;;;;1.77;0.90;;;17.50;1.00;;;;;;4882236;29;20045;-51
2022/11/08 10:27:14;;;;;;;2.08;1.00;;;17.50;1.00;;;;;;4847126;29;20064;-49
2022/11/08 10:29:44;;;;;;;2.25;0.82;;;17.50;1.00;;;;;;4880123;29;20052;-51
2022/11/08 10:32:21;;;;;;;1.92;0.80;;;17.50;1.00;;;;;;4881561;29;20048;-50
2022/11/08 10:35:10;;;;;;;4.30;0.90;;;17.50;1.00;;;;;;4881964;29;20444;-51
2022/11/08 10:37:39;;;;;;;2.78;0.93;;;17.50;1.00;;;;;;4882008;29;20136;-52
2022/11/08 10:40:18;;;;;;;2.97;0.90;;;17.50;1.00;;;;;;4881203;29;20056;-54
2022/11/08 10:42:50;;;;;;;2.28;0.90;;;17.50;1.00;;;;;;4881501;29;20056;-51
2022/11/08 10:45:17;;;;;;;1.77;0.55;;;17.50;1.00;;;;;;4881978;29;20041;-49
2022/11/08 10:47:45;;;;;;;2.63;0.70;;;17.50;1.00;;;;;;4881461;29;20077;-51
2022/11/08 10:50:14;;;;;;;2.08;1.00;;;17.50;1.00;;;;;;4881049;29;20518;-50
2022/11/08 10:52:52;;;;;;;2.55;0.82;;;17.50;1.00;;;;;;4881312;29;20052;-47
2022/11/08 10:55:37;;;;;;;3.33;0.60;;;17.50;1.00;;;;;;4881298;29;20053;-48
2022/11/08 10:58:30;;;;;;;1.73;0.80;;;17.50;1.00;;;;;;4881533;29;20460;-48
2022/11/08 11:01:13;;;;;;;2.50;0.98;;;17.50;1.00;;;;;;4881390;29;20045;-48
2022/11/08 11:03:40;;;;;;;2.45;1.10;;;17.50;1.00;;;;;;4881690;29;20412;-52
2022/11/08 11:06:31;;;;;;;2.50;0.68;;;17.50;1.00;;;;;;4881425;29;20045;-50
2022/11/08 11:09:15;;;;;;;1.50;0.80;;;17.50;1.00;;;;;;4864080;29;20045;-49
2022/11/08 11:11:44;;;;;;;4.68;1.02;;;17.50;1.00;;;;;;4881246;29;20095;-48
2022/11/08 11:14:16;;;;;;;2.00;0.88;;;17.50;1.00;;;;;;4881347;29;20049;-48
2022/11/08 11:16:54;;;;;;;2.78;0.90;;;17.50;1.00;;;;;;4880933;29;20100;-52
2022/11/08 11:19:23;;;;;;;1.88;0.75;;;17.50;1.00;;;;;;4880641;29;20431;-52
2022/11/08 11:22:08;;;;;;;4.18;0.77;;;17.50;1.00;;;;;;4880709;29;20558;-52
2022/11/08 11:24:45;;;;;;;2.95;1.35;;;17.50;1.00;;;;;;4880405;29;20060;-53
2022/11/08 11:27:36;;;;;;;2.72;1.00;;;17.50;1.00;;;;;;4880994;29;20112;-49
2022/11/08 11:30:23;;;;;;;4.25;0.95;;;17.50;1.00;;;;;;4880262;29;20060;-50
2022/11/08 11:32:56;;;;;;;6.95;1.10;;;17.50;1.00;;;;;;4880457;29;20045;-50
2022/11/08 11:35:26;;;;;;;4.32;1.20;;;17.50;1.00;;;;;;4880639;29;20045;-50
2022/11/08 11:37:54;;;;;;;2.15;1.23;;;17.50;1.00;;;;;;4880817;29;20049;-50
2022/11/08 11:40:45;;;;;;;3.70;0.98;;;17.50;1.00;;;;;;4879829;29;20053;-49
2022/11/08 11:43:19;;;;;;;1.77;0.90;;;17.50;1.00;;;;;;4880275;29;20053;-48
2022/11/08 11:45:57;;;;;;;;;;;17.50;1.00;;;;;;4880810;29;20045;-49
2022/11/08 11:48:38;;;;;;;1.83;1.38;;;17.50;1.00;;;;;;4880180;29;19928;-50
2022/11/08 11:51:09;;;;;;;5.35;1.50;;;17.50;1.00;;;;;;4880763;29;20128;-49
2022/11/08 11:53:37;;;;;;;7.05;1.40;;;17.50;1.00;;;;;;4880182;29;20539;-50
2022/11/08 11:56:15;;;;;;;2.20;1.00;;;17.50;1.00;;;;;;4878952;29;20061;-51
2022/11/08 11:58:48;;;;;;;3.92;1.30;;;17.50;1.00;;;;;;4880043;29;20048;-49
2022/11/08 12:01:37;;;;;;;4.90;1.33;;;17.50;1.00;;;;;;4880213;29;20414;-51
2022/11/08 12:04:21;;;;;;;3.58;1.90;;;17.50;1.00;;;;;;4880140;29;20069;-51
2022/11/08 12:07:18;;;;;;;5.07;1.35;;;17.50;1.00;;;;;;4880142;29;20041;-50
2022/11/08 12:09:59;;;;;;;4.30;1.38;;;17.60;1.00;;;;;;4879696;29;20059;-51
2022/11/08 12:12:47;;;;;;;4.95;1.92;;;17.50;1.00;;;;;;4879794;29;20045;-50
2022/11/08 12:15:22;;;;;;;5.63;2.03;;;17.50;1.00;;;;;;4880192;29;20060;-49
2022/11/08 12:18:12;;;;;;;4.07;1.52;;;17.50;1.00;;;;;;4880112;29;20053;-47
2022/11/08 12:21:06;;;;;;;4.43;1.60;;;17.60;1.00;;;;;;4879141;29;20068;-49
2022/11/08 12:23:58;;;;;;;2.53;1.20;;;17.50;1.00;;;;;;4879879;29;20045;-48
2022/11/08 12:27:06;;;;;;;4.05;1.40;;;17.50;1.00;;;;;;4879864;29;20033;-52
2022/11/08 12:29:54;;;;;;;6.05;1.60;;;17.60;1.00;;;;;;4803831;29;20518;-52
2022/11/08 12:32:33;;;;;;;7.32;1.42;;;17.60;1.00;;;;;;4875953;29;20061;-49
2022/11/08 12:35:14;;;;;;;4.80;1.88;;;17.60;1.00;;;;;;4879633;29;20052;-48
2022/11/08 12:38:19;;;;;;;7.07;1.48;;;17.60;1.00;;;;;;4879549;29;20045;-51
2022/11/08 12:41:04;;;;;;;7.60;1.52;;;17.60;1.00;;;;;;4879792;29;20056;-49
2022/11/08 12:43:33;;;;;;;3.50;1.08;;;17.60;1.00;;;;;;4879949;29;20065;-50
2022/11/08 12:46:09;;;;;;;6.43;1.48;;;17.60;1.00;;;;;;4879832;29;20116;-52
2022/11/08 12:49:07;;;;;;;8.10;1.92;;;17.60;1.00;;;;;;4879364;29;20055;-48
2022/11/08 12:52:26;;;;;;;8.57;1.55;;;17.50;1.00;;;;;;4878634;29;20480;-50
2022/11/08 12:54:59;;;;;;;9.52;2.80;;;17.60;1.00;;;;;;4879686;29;20053;-52
2022/11/08 12:57:27;;;;;;;4.10;1.20;;;17.60;1.00;;;;;;4879487;29;20079;-52
2022/11/08 13:00:13;;;;;;;5.95;2.00;;;17.60;1.00;;;;;;4879090;29;20055;-48
2022/11/08 13:02:42;;;;;;;6.45;1.63;;;17.60;1.00;;;;;;4879463;29;20117;-50
2022/11/08 13:05:46;;;;;;;3.67;1.17;;;17.60;1.00;;;;;;4879282;29;20049;-49
2022/11/08 13:08:13;;;;;;;4.55;1.70;;;17.60;1.00;;;;;;4869575;29;20061;-52
2022/11/08 13:10:59;;;;;;;8.10;1.63;;;17.60;1.00;;;;;;4879239;29;20045;-50
2022/11/08 13:13:52;;;;;;;8.55;1.52;;;17.60;1.00;;;;;;4879273;29;20041;-49
2022/11/08 13:16:20;;;;;;;5.63;1.55;;;17.50;1.00;;;;;;4879368;29;20053;-51
2022/11/08 13:18:56;;;;;;;7.38;1.48;;;17.60;1.00;;;;;;4878890;29;20037;-48
2022/11/08 13:21:37;;;;;;;6.25;2.10;;;17.60;1.00;;;;;;4877925;29;20377;-49
2022/11/08 13:24:04;;;;;;;3.78;1.55;;;17.60;1.00;;;;;;4879432;29;20072;-49
2022/11/08 13:26:50;;;;;;;6.65;1.77;;;17.60;1.00;;;;;;4879568;29;20133;-48
2022/11/08 13:29:26;;;;;;;3.13;1.40;;;17.60;1.00;;;;;;4878846;29;20116;-48
2022/11/08 13:32:17;;;;;;;9.45;1.80;;;17.60;1.00;;;;;;4879076;29;20049;-47
2022/11/08 13:35:33;;;;;;;4.32;2.10;;;17.60;1.00;;;;;;4879556;29;20041;-49
2022/11/08 13:38:03;;;;;;;6.80;1.70;;;17.60;1.00;;;;;;4852734;29;20535;-49
2022/11/08 13:40:56;;;;;;;8.32;1.83;;;17.60;1.00;;;;;;4878770;29;20053;-50
2022/11/08 13:43:26;;;;;;;;;;;17.60;1.00;;;;;;4879334;29;20045;-47
2022/11/08 13:45:54;;;;;;;7.18;2.17;;;17.60;1.00;;;;;;4878907;29;19923;-51
2022/11/08 13:48:26;;;;;;;3.85;1.73;;;17.60;1.00;;;;;;4878725;29;20140;-50
2022/11/08 13:50:56;;;;;;;8.27;1.77;;;17.60;1.00;;;;;;4878996;29;20041;-49